This is the latest recevied weather packets stored in our database for station/object KD8ZLZ. If no packets are shown the sender has not sent any weather packets the latest 10 day(s).
| Time | Temp. | Humidity | Pressure | Rain* | Wind** | Luminosity | Snow |
|---|---|---|---|---|---|---|---|
| 1777933533 | 25.56° C | 43% | 1001.6 hPa | 0 mm | - | - | - |
| 1777931733 | 25.56° C | 44% | 1002 hPa | 0 mm | - | - | - |
| 1777925433 | 25° C | 35% | 1002.9 hPa | 0 mm | - | - | - |
| 1777925132 | 25° C | 35% | 1003.2 hPa | 0 mm | - | - | - |
| 1777924534 | 25° C | 35% | 1003.3 hPa | 0 mm | - | - | - |
| 1777924233 | 24.44° C | 35% | 1003.3 hPa | 0 mm | - | - | - |
| 1777923632 | 24.44° C | 34% | 1003.2 hPa | 0 mm | - | - | - |
| 1777922434 | 24.44° C | 34% | 1003.3 hPa | 0 mm | - | - | - |
| 1777922153 | 24.44° C | 34% | 1003.2 hPa | 0 mm | - | - | - |
| 1777920953 | 24.44° C | 33% | 1003.6 hPa | 0 mm | - | - | - |
| 1777920632 | 24.44° C | 34% | 1003.6 hPa | 0 mm | - | - | - |
| 1777918853 | 23.89° C | 33% | 1004.3 hPa | 0 mm | - | - | - |
| 1777916433 | 23.33° C | 37% | 1004.9 hPa | 0 mm | - | - | - |
| 1777914353 | 22.78° C | 41% | 1005.3 hPa | 0 mm | - | - | - |
| 1777912832 | 22.22° C | 45% | 1005.6 hPa | 0 mm | - | - | - |
| 1777912233 | 21.67° C | 46% | 1005.9 hPa | 0 mm | - | - | - |
| 1777911033 | 21.11° C | 48% | 1005.9 hPa | 0 mm | - | - | - |
| 1777909853 | 20° C | 49% | 1006.2 hPa | 0 mm | - | - | - |
| 1777908632 | 19.44° C | 51% | 1005.8 hPa | 0 mm | - | - | - |
| 1777908053 | 18.89° C | 52% | 1005.8 hPa | 0 mm | - | - | - |
| 1777899933 | 12.78° C | 66% | 1006.9 hPa | 0 mm | - | - | - |
| 1777896933 | 11.11° C | 69% | 1006.9 hPa | 0 mm | - | - | - |
| 1777893933 | 8.89° C | 75% | 1006.9 hPa | 0 mm | - | - | - |
| 1777892432 | 8.89° C | 75% | 1006.6 hPa | 0 mm | - | - | - |
| 1777890032 | 8.33° C | 76% | 1006.6 hPa | 0 mm | - | - | - |
* Rain latest hour (hover to see other rain measurements)
** Current wind speed in m/s (hover to see current wind gust speed)